الصفحة الرئيسية
METAR-TAF:

METAR-TAF

مطار :

Kosrae, مايكرونيزيا

دائرة عرض: 05-21N, خط طول: 162-57E, ارتفاع: 3 متر

مراقبة الطقس الحالي

تاريخ ووقت الإصدار 1ساعة و 33 دقيقة قبل الساعة 22:50UTC
ريح 7 عقدة من الشرق
درجة الحرارة 30°درجة مئوية
الرطوبة 70%
ضغط 1010 hPa
الرؤية: 16.1 كم
غيوم قليلة على ارتفاع 2200 قدم
غيوم مفككة على ارتفاع 30000 قدم

METAR: PTSA 172250Z 10007KT 10SM FEW022 BKN300 30/24 A2983

زمن: 11:23 (00:23 UTC)

توقعات

تاريخ ووقت الإصدار 52 دقيقة قبل الساعة 23:31UTC
التوقعات صالحة من18 الساعة 00 UTC إلى 18 الساعة 24 UTC
ريح 6 عقدة من الجنوب الشرقي
الرؤية: 10 كم
غيوم متفرقة على ارتفاع 1800 قدم
غيوم متفرقة على ارتفاع 13000 قدم

TAF: PTSA 172331Z 1800/1824 13006KT P6SM SCT018 SCT130

أرصاد الطقس والتوقعات من أكثر من 4000 مطار (تقارير الطقس للمطار METAR والتنبؤ بالطقس بالمطارTAF).

المحطات المتاحة هي النقط الصفراء والحمراء على الخريطة.

حرك المؤشر فوق النقطة لمعرفة اسم المحطة.

ثم انقر لمعرفة أرصاد وتوقعات الطقس.

لتغيير الخارطة: اضغط على الأزرار الخضراء مع رمز الصليب الأسود للتكبير. على الزر الأخضر مع شرطة للتصغير، أو على الأسهم الخضراء للخرائط المجاورة.


METAR-TAF: